Time;durP1;ratioP1;P1;durP2;ratioP2;P2;SDS_P1;SDS_P2;PMS_P1;PMS_P2;Temp;Humidity;BMP_temperature;BMP_pressure;BME280_temperature;BME280_humidity;BME280_pressure;Samples;Min_cycle;Max_cycle;Signal;HPM_P1;HPM_P2
2023/01/09 00:02:20;;;;;;;9.32;3.17;;;7.20;99.90;;;;;;5082715;28;20043;-84
2023/01/09 00:04:45;;;;;;;6.22;2.83;;;7.20;99.90;;;;;;5049471;28;20028;-85
2023/01/09 00:07:11;;;;;;;7.13;3.00;;;7.20;99.90;;;;;;5048034;28;20086;-85
2023/01/09 00:09:37;;;;;;;6.07;3.20;;;7.20;99.90;;;;;;5063545;28;20048;-85
2023/01/09 00:12:03;;;;;;;6.22;3.00;;;7.20;99.90;;;;;;5047336;28;20068;-85
2023/01/09 00:14:29;;;;;;;5.22;2.78;;;7.20;99.90;;;;;;5062746;28;20033;-85
2023/01/09 00:16:55;;;;;;;4.68;2.80;;;7.10;99.90;;;;;;5048251;28;20174;-85
2023/01/09 00:19:20;;;;;;;5.22;2.78;;;7.10;99.90;;;;;;5047922;28;20476;-85
2023/01/09 00:21:46;;;;;;;4.47;2.10;;;7.10;99.90;;;;;;5065286;28;20130;-85
2023/01/09 00:24:12;;;;;;;3.90;1.98;;;7.10;99.90;;;;;;5043747;28;20432;-85
2023/01/09 00:26:37;;;;;;;4.00;1.88;;;7.10;99.90;;;;;;5082029;28;20041;-85
2023/01/09 00:29:03;;;;;;;3.30;1.90;;;7.10;99.90;;;;;;5064174;28;20048;-85
2023/01/09 00:31:29;;;;;;;2.17;1.80;;;7.10;99.90;;;;;;5048801;28;20036;-85
2023/01/09 00:33:59;;;;;;;5.30;1.80;;;7.10;99.90;;;;;;5061413;28;20431;-85
2023/01/09 00:36:25;;;;;;;3.35;2.05;;;7.00;99.90;;;;;;5050359;28;20036;-85
2023/01/09 00:38:51;;;;;;;2.42;1.70;;;7.00;99.90;;;;;;5048387;28;20083;-85
2023/01/09 00:41:24;;;;;;;3.28;1.58;;;7.00;99.90;;;;;;5080550;28;20080;-85
2023/01/09 00:43:54;;;;;;;3.83;1.88;;;7.00;99.90;;;;;;5063817;28;20040;-86
2023/01/09 00:46:23;;;;;;;1.67;1.58;;;7.00;99.90;;;;;;5060160;28;20085;-85
2023/01/09 00:48:49;;;;;;;3.85;1.80;;;7.00;99.90;;;;;;5048490;28;20040;-85
2023/01/09 00:51:17;;;;;;;2.10;1.90;;;6.90;99.90;;;;;;5062770;28;20084;-86
2023/01/09 00:53:43;;;;;;;1.80;1.63;;;6.90;99.90;;;;;;5049531;28;20161;-85
2023/01/09 00:56:13;;;;;;;2.20;1.75;;;6.90;99.90;;;;;;5046867;28;20037;-86
2023/01/09 00:58:40;;;;;;;1.70;1.60;;;6.80;99.90;;;;;;5047869;28;20040;-85
2023/01/09 01:01:05;;;;;;;1.60;1.50;;;6.80;99.90;;;;;;5046184;28;20033;-85
2023/01/09 01:03:31;;;;;;;1.70;1.60;;;6.80;99.90;;;;;;5044347;28;20095;-85
2023/01/09 01:08:41;;;;;;;2.47;1.65;;;6.70;99.90;;;;;;5061581;28;20041;-85
2023/01/09 01:11:09;;;;;;;1.70;1.60;;;6.60;99.90;;;;;;5045815;28;20543;-85
2023/01/09 01:13:36;;;;;;;4.13;1.95;;;6.60;99.90;;;;;;5063642;28;20036;-85
2023/01/09 01:16:07;;;;;;;2.17;1.85;;;6.70;99.90;;;;;;5048425;28;20120;-85
2023/01/09 01:18:32;;;;;;;3.83;1.90;;;6.60;99.90;;;;;;5047115;28;20075;-85
2023/01/09 01:20:58;;;;;;;3.17;2.00;;;6.60;99.90;;;;;;5063036;28;20126;-85
2023/01/09 01:23:24;;;;;;;3.38;2.10;;;6.60;99.90;;;;;;5064165;28;20556;-86
2023/01/09 01:25:50;;;;;;;4.47;2.20;;;6.60;99.90;;;;;;5046709;28;20119;-85
2023/01/09 01:28:15;;;;;;;3.30;2.20;;;6.60;99.90;;;;;;5047169;28;20186;-85
2023/01/09 01:30:42;;;;;;;4.35;2.60;;;6.60;99.90;;;;;;5044708;28;20081;-85
2023/01/09 01:33:09;;;;;;;3.05;2.50;;;6.60;99.90;;;;;;5048513;28;20048;-85
2023/01/09 01:35:35;;;;;;;6.18;2.90;;;6.70;99.90;;;;;;5062248;28;20056;-85
2023/01/09 01:38:01;;;;;;;5.30;2.85;;;6.70;99.90;;;;;;5044694;28;20563;-86
2023/01/09 01:40:27;;;;;;;5.72;2.90;;;6.80;99.90;;;;;;5061475;28;20059;-86
2023/01/09 01:42:54;;;;;;;5.85;3.30;;;6.80;99.90;;;;;;5061732;28;20162;-85
2023/01/09 01:45:25;;;;;;;4.40;3.00;;;6.80;99.90;;;;;;5045890;28;20032;-85
2023/01/09 01:48:11;;;;;;;5.82;3.35;;;6.70;99.90;;;;;;5046736;28;20089;-85
2023/01/09 01:50:47;;;;;;;5.38;3.33;;;6.80;99.90;;;;;;5047841;28;20044;-85
2023/01/09 01:53:35;;;;;;;4.78;2.85;;;6.80;99.90;;;;;;5045761;28;20090;-85
2023/01/09 01:56:07;;;;;;;6.95;3.63;;;6.80;99.90;;;;;;5060961;28;20079;-86
2023/01/09 01:58:41;;;;;;;8.23;3.25;;;6.80;99.90;;;;;;5062220;28;20049;-85
2023/01/09 02:01:07;;;;;;;7.80;3.90;;;6.80;99.90;;;;;;5060411;28;20051;-85
2023/01/09 02:03:33;;;;;;;10.10;3.53;;;6.90;99.90;;;;;;5047369;28;20051;-85
2023/01/09 02:05:59;;;;;;;6.13;3.28;;;6.90;99.90;;;;;;5045876;28;20128;-85
2023/01/09 02:08:25;;;;;;;5.90;3.47;;;6.90;99.90;;;;;;5058734;28;20667;-85
2023/01/09 02:10:52;;;;;;;8.25;3.13;;;6.80;99.90;;;;;;5061103;28;20135;-85
2023/01/09 02:13:18;;;;;;;6.22;3.35;;;6.80;99.90;;;;;;5047837;28;20377;-85
2023/01/09 02:15:53;;;;;;;9.80;4.10;;;6.80;99.90;;;;;;5061772;28;20118;-85
2023/01/09 02:18:47;;;;;;;6.25;3.28;;;6.70;99.90;;;;;;5047745;28;20133;-86
2023/01/09 02:21:40;;;;;;;8.32;3.38;;;6.70;99.90;;;;;;5062769;28;20084;-86
2023/01/09 02:24:16;;;;;;;7.65;4.00;;;6.60;99.90;;;;;;5046504;28;20090;-86
2023/01/09 02:27:03;;;;;;;6.22;3.50;;;6.50;99.90;;;;;;5064576;28;20090;-86
2023/01/09 02:30:09;;;;;;;9.60;3.88;;;6.50;99.90;;;;;;5048279;28;20449;-85
2023/01/09 02:32:44;;;;;;;7.38;3.78;;;6.40;99.90;;;;;;5062462;28;20036;-86
2023/01/09 02:35:21;;;;;;;7.13;3.35;;;6.40;99.90;;;;;;5046213;28;20492;-85
2023/01/09 02:38:06;;;;;;;11.43;3.85;;;6.30;99.90;;;;;;5045648;28;20045;-85
2023/01/09 02:40:49;;;;;;;9.75;3.60;;;6.30;99.90;;;;;;5050076;28;20062;-86
2023/01/09 02:43:15;;;;;;;8.73;3.55;;;6.30;99.90;;;;;;5067353;28;20094;-86
2023/01/09 02:45:41;;;;;;;8.35;4.00;;;6.20;99.90;;;;;;5067622;28;20109;-85
2023/01/09 02:48:10;;;;;;;6.70;3.78;;;6.20;99.90;;;;;;5050620;28;20496;-85
2023/01/09 02:50:46;;;;;;;10.90;4.43;;;6.10;99.90;;;;;;5066669;28;20400;-86
2023/01/09 02:53:40;;;;;;;11.32;4.32;;;6.10;99.90;;;;;;5047067;28;20051;-86
2023/01/09 02:56:34;;;;;;;5.97;4.00;;;6.00;99.90;;;;;;5067366;28;20412;-85
2023/01/09 02:59:08;;;;;;;8.43;3.58;;;6.00;99.90;;;;;;5065483;28;20040;-85
2023/01/09 03:01:55;;;;;;;7.82;3.92;;;6.00;99.90;;;;;;5051908;28;20032;-85
2023/01/09 03:04:42;;;;;;;6.93;3.72;;;5.90;99.90;;;;;;5049910;28;20542;-85
2023/01/09 03:07:28;;;;;;;8.43;4.20;;;5.80;99.90;;;;;;5064874;28;20037;-85
2023/01/09 03:10:07;;;;;;;7.93;4.00;;;5.80;99.90;;;;;;5063387;28;20036;-86
2023/01/09 03:12:34;;;;;;;12.75;4.70;;;5.80;99.90;;;;;;5066053;28;20054;-86
2023/01/09 03:15:01;;;;;;;7.43;4.03;;;5.70;99.90;;;;;;5082213;28;20040;-86
2023/01/09 03:17:35;;;;;;;8.45;4.20;;;5.70;99.90;;;;;;5068371;28;20083;-86
2023/01/09 03:20:03;;;;;;;10.60;4.40;;;5.60;99.90;;;;;;5051491;28;20411;-86
2023/01/09 03:22:29;;;;;;;11.55;3.85;;;5.70;99.90;;;;;;5050083;28;20431;-86
2023/01/09 03:24:55;;;;;;;9.32;3.65;;;5.70;99.90;;;;;;5050611;28;20450;-85
2023/01/09 03:27:21;;;;;;;11.57;4.22;;;5.70;99.90;;;;;;5064326;28;20128;-86
2023/01/09 03:29:46;;;;;;;9.23;4.30;;;5.70;99.90;;;;;;5050726;28;20119;-85
2023/01/09 03:32:12;;;;;;;13.18;4.20;;;5.70;99.90;;;;;;5050477;28;20032;-86
2023/01/09 03:34:38;;;;;;;8.05;4.35;;;5.60;99.90;;;;;;5064735;28;20040;-85
2023/01/09 03:37:03;;;;;;;12.57;4.40;;;5.60;99.90;;;;;;5068006;28;20040;-85
2023/01/09 03:39:30;;;;;;;10.07;4.07;;;5.60;99.90;;;;;;5064494;28;20127;-85
2023/01/09 03:41:56;;;;;;;9.85;4.50;;;5.50;99.90;;;;;;5050603;28;20074;-85
2023/01/09 03:44:21;;;;;;;13.50;4.30;;;5.50;99.90;;;;;;5050664;28;20039;-86
2023/01/09 03:46:49;;;;;;;12.55;4.40;;;5.50;99.90;;;;;;5048013;28;20071;-86
2023/01/09 03:49:15;;;;;;;10.55;3.85;;;5.40;99.90;;;;;;5047753;28;20037;-85
2023/01/09 03:51:41;;;;;;;10.50;4.32;;;5.40;99.90;;;;;;5050238;28;20051;-85
2023/01/09 03:54:06;;;;;;;10.90;4.30;;;5.30;99.90;;;;;;5050227;28;20044;-85
2023/01/09 03:56:32;;;;;;;11.02;4.88;;;5.30;99.90;;;;;;5050595;28;20120;-86
2023/01/09 03:58:58;;;;;;;11.55;4.50;;;5.30;99.90;;;;;;5048620;28;20475;-85
2023/01/09 04:01:23;;;;;;;11.50;4.00;;;5.20;99.90;;;;;;5050539;28;20055;-85
2023/01/09 04:03:49;;;;;;;10.25;4.45;;;5.20;99.90;;;;;;5062887;28;20121;-85
2023/01/09 04:06:14;;;;;;;10.43;4.45;;;5.10;99.90;;;;;;5046610;28;20040;-85
2023/01/09 04:08:40;;;;;;;17.45;4.72;;;5.10;99.90;;;;;;5066751;28;20078;-85
2023/01/09 04:11:05;;;;;;;8.90;4.50;;;5.00;99.90;;;;;;5048145;28;20424;-86
2023/01/09 04:13:31;;;;;;;11.57;4.35;;;5.00;99.90;;;;;;5061427;28;20073;-85
2023/01/09 04:15:57;;;;;;;11.82;4.70;;;4.90;99.90;;;;;;5048593;28;20533;-85
2023/01/09 04:18:22;;;;;;;10.55;5.20;;;4.90;99.90;;;;;;5063704;28;20072;-86
2023/01/09 04:20:48;;;;;;;11.25;4.97;;;4.80;99.90;;;;;;5046906;28;20472;-85
2023/01/09 04:23:14;;;;;;;10.02;4.97;;;4.80;99.90;;;;;;5046105;28;20094;-85
2023/01/09 04:25:39;;;;;;;11.80;5.20;;;4.80;99.90;;;;;;5049346;28;20037;-85
2023/01/09 04:28:05;;;;;;;13.63;5.32;;;4.70;99.90;;;;;;5044492;28;20049;-85
2023/01/09 04:30:31;;;;;;;12.38;5.78;;;4.70;99.90;;;;;;5050181;28;20057;-85
2023/01/09 04:32:56;;;;;;;10.65;5.35;;;4.70;99.90;;;;;;5063847;28;20393;-86
2023/01/09 04:35:22;;;;;;;10.88;5.32;;;4.70;99.90;;;;;;5049218;28;20481;-85
2023/01/09 04:37:48;;;;;;;14.20;6.65;;;4.70;99.90;;;;;;5065026;28;20133;-85
2023/01/09 04:40:14;;;;;;;15.65;6.20;;;4.70;99.90;;;;;;5065843;28;20056;-85
2023/01/09 04:42:40;;;;;;;12.82;6.15;;;4.70;99.90;;;;;;5062703;28;20618;-85
2023/01/09 04:45:08;;;;;;;13.45;6.45;;;4.70;99.90;;;;;;5047412;28;20125;-85
2023/01/09 04:47:34;;;;;;;14.98;6.35;;;4.70;99.90;;;;;;5060002;28;20469;-85
2023/01/09 04:49:59;;;;;;;15.73;6.22;;;4.70;99.90;;;;;;5047121;28;20094;-85
2023/01/09 04:52:26;;;;;;;19.65;7.28;;;4.70;99.90;;;;;;5048003;28;20397;-85
2023/01/09 04:54:51;;;;;;;15.98;7.32;;;4.70;99.90;;;;;;5064955;28;20563;-86
2023/01/09 04:57:17;;;;;;;14.02;7.70;;;4.70;99.90;;;;;;5065730;28;20154;-85
2023/01/09 04:59:43;;;;;;;18.88;7.78;;;4.70;99.90;;;;;;5047859;28;20055;-85
2023/01/09 05:02:09;;;;;;;16.17;7.35;;;4.70;99.90;;;;;;5048276;28;20043;-85
2023/01/09 05:04:35;;;;;;;14.35;7.40;;;4.70;99.90;;;;;;5048220;28;20036;-85
2023/01/09 05:07:00;;;;;;;15.82;7.30;;;4.60;99.90;;;;;;5064344;28;20037;-85
2023/01/09 05:09:26;;;;;;;17.15;6.82;;;4.60;99.90;;;;;;5047968;28;20041;-85
2023/01/09 05:11:51;;;;;;;17.13;7.82;;;4.60;99.90;;;;;;5063878;28;20504;-85
2023/01/09 05:14:17;;;;;;;19.42;8.40;;;4.60;99.90;;;;;;5060453;28;20060;-85
2023/01/09 05:16:43;;;;;;;16.52;7.38;;;4.70;99.90;;;;;;5062687;28;20512;-85
2023/01/09 05:19:08;;;;;;;16.95;7.95;;;4.70;99.90;;;;;;5048227;28;20426;-85
2023/01/09 05:21:34;;;;;;;20.40;8.48;;;4.70;99.90;;;;;;5047783;28;20044;-86
2023/01/09 05:23:59;;;;;;;19.38;9.38;;;4.80;99.90;;;;;;5065454;28;20047;-85
2023/01/09 05:26:25;;;;;;;19.80;10.02;;;4.80;99.90;;;;;;5048337;28;20032;-85
2023/01/09 05:28:57;;;;;;;18.33;10.10;;;4.80;99.90;;;;;;5061201;28;20086;-86
2023/01/09 05:31:24;;;;;;;18.27;9.60;;;4.90;99.90;;;;;;5047610;28;20078;-85
2023/01/09 05:33:50;;;;;;;22.50;10.90;;;4.90;99.90;;;;;;5063356;28;20036;-85
2023/01/09 05:36:16;;;;;;;22.58;10.95;;;4.90;99.90;;;;;;5046481;28;20055;-86
2023/01/09 05:38:42;;;;;;;25.25;12.07;;;5.00;99.90;;;;;;5042445;28;20043;-85
2023/01/09 05:41:08;;;;;;;24.17;13.75;;;5.00;99.90;;;;;;5048293;28;20088;-85
2023/01/09 05:43:33;;;;;;;23.70;12.90;;;5.10;99.90;;;;;;5046606;28;20767;-85
2023/01/09 05:45:59;;;;;;;22.27;13.10;;;5.10;99.90;;;;;;5063282;28;20047;-86
2023/01/09 05:48:25;;;;;;;26.92;14.05;;;5.10;99.90;;;;;;5045665;28;20095;-85
2023/01/09 05:50:50;;;;;;;23.05;12.25;;;5.10;99.90;;;;;;5048205;28;20492;-86
2023/01/09 05:53:16;;;;;;;25.52;14.00;;;5.20;99.90;;;;;;5064264;28;20119;-85
2023/01/09 05:55:42;;;;;;;27.33;13.80;;;5.20;99.90;;;;;;5048199;28;20123;-85
2023/01/09 05:58:07;;;;;;;27.13;14.70;;;5.20;99.90;;;;;;5062249;28;20048;-86
2023/01/09 06:00:33;;;;;;;30.67;16.77;;;5.30;99.90;;;;;;5044940;28;20051;-85
2023/01/09 06:02:59;;;;;;;28.73;16.30;;;5.40;99.90;;;;;;5060440;28;20067;-85
2023/01/09 06:05:24;;;;;;;26.42;14.23;;;5.40;99.90;;;;;;5061941;28;20060;-85
2023/01/09 06:07:50;;;;;;;25.55;15.20;;;5.50;99.90;;;;;;5048368;28;20028;-86
2023/01/09 06:10:16;;;;;;;28.65;15.07;;;5.50;99.90;;;;;;5045929;28;20045;-85
2023/01/09 06:12:46;;;;;;;30.13;17.40;;;5.60;99.90;;;;;;5048298;28;20036;-85
2023/01/09 06:15:14;;;;;;;29.58;16.90;;;5.60;99.90;;;;;;5063136;28;20048;-86
2023/01/09 06:17:40;;;;;;;31.10;16.83;;;5.70;99.90;;;;;;5044680;28;20041;-86
2023/01/09 06:20:06;;;;;;;30.33;17.58;;;5.70;99.90;;;;;;5057507;28;20512;-85
2023/01/09 06:22:31;;;;;;;25.95;15.45;;;5.70;99.90;;;;;;5043344;28;20400;-86
2023/01/09 06:24:57;;;;;;;26.80;16.73;;;5.70;99.90;;;;;;5047769;28;20029;-85
2023/01/09 06:27:23;;;;;;;27.15;16.48;;;5.80;99.90;;;;;;5044804;28;20916;-86
2023/01/09 06:29:48;;;;;;;25.05;15.77;;;5.80;99.90;;;;;;5044599;28;20037;-84
2023/01/09 06:32:14;;;;;;;28.23;16.70;;;5.80;99.90;;;;;;5061609;28;20028;-86
2023/01/09 06:34:39;;;;;;;29.17;16.35;;;5.80;99.90;;;;;;5062120;28;20056;-86
2023/01/09 06:37:05;;;;;;;28.50;16.52;;;5.80;99.90;;;;;;5047492;28;20048;-85
2023/01/09 06:39:31;;;;;;;26.90;15.75;;;5.80;99.90;;;;;;5063097;28;20049;-85
2023/01/09 06:41:56;;;;;;;25.90;16.17;;;5.90;99.90;;;;;;5047147;28;20037;-86
2023/01/09 06:44:22;;;;;;;25.92;14.43;;;5.80;99.90;;;;;;5063457;28;20041;-86
2023/01/09 06:46:47;;;;;;;24.40;13.95;;;5.90;99.90;;;;;;5046930;28;20123;-86
2023/01/09 06:49:13;;;;;;;23.25;12.15;;;5.80;99.90;;;;;;5060564;28;20469;-86
2023/01/09 06:51:38;;;;;;;26.88;14.70;;;5.80;99.90;;;;;;5047192;28;20459;-86
2023/01/09 06:54:04;;;;;;;24.95;15.05;;;5.90;99.90;;;;;;5046386;28;20032;-85
2023/01/09 06:56:30;;;;;;;24.45;14.20;;;5.90;99.90;;;;;;5047770;28;20120;-85
2023/01/09 06:58:55;;;;;;;24.98;14.55;;;5.90;99.90;;;;;;5047267;28;20061;-86
2023/01/09 07:01:21;;;;;;;26.85;15.35;;;5.90;99.90;;;;;;5044385;28;20072;-85
2023/01/09 07:03:47;;;;;;;23.25;13.90;;;5.90;99.90;;;;;;5047733;28;20039;-85
2023/01/09 07:06:13;;;;;;;24.80;14.00;;;5.90;99.90;;;;;;5047887;28;20032;-86
2023/01/09 07:08:38;;;;;;;22.73;12.98;;;5.90;99.90;;;;;;5046868;28;20036;-86
2023/01/09 07:11:04;;;;;;;21.80;13.32;;;5.90;99.90;;;;;;5048402;28;20071;-86
2023/01/09 07:13:30;;;;;;;19.98;12.45;;;5.80;99.90;;;;;;5062912;28;20055;-86
2023/01/09 07:15:55;;;;;;;26.48;15.52;;;5.80;99.90;;;;;;5057007;28;20037;-85
2023/01/09 07:18:21;;;;;;;26.10;13.60;;;5.80;99.90;;;;;;5062267;28;20074;-85
2023/01/09 07:20:47;;;;;;;21.52;12.27;;;5.80;99.90;;;;;;5047798;28;20033;-86
2023/01/09 07:23:13;;;;;;;25.02;12.75;;;5.80;99.90;;;;;;5059069;28;20097;-86
2023/01/09 07:25:42;;;;;;;21.48;12.38;;;5.80;99.90;;;;;;5046703;28;20553;-85
2023/01/09 07:28:07;;;;;;;20.45;12.70;;;5.80;99.90;;;;;;5050478;28;20123;-85
2023/01/09 07:30:33;;;;;;;25.92;12.55;;;5.80;99.90;;;;;;5051454;28;20658;-85
2023/01/09 07:32:59;;;;;;;21.83;12.57;;;5.70;99.90;;;;;;5064402;28;20052;-86
2023/01/09 07:35:24;;;;;;;21.95;13.25;;;5.70;99.90;;;;;;5066588;28;20044;-85
2023/01/09 07:37:50;;;;;;;19.52;12.10;;;5.60;99.90;;;;;;5047974;28;20128;-85
2023/01/09 07:40:16;;;;;;;21.58;11.40;;;5.50;99.90;;;;;;5050177;28;20481;-86
2023/01/09 07:42:41;;;;;;;23.25;11.82;;;5.50;99.90;;;;;;5049824;28;20489;-85
2023/01/09 07:45:07;;;;;;;21.95;11.75;;;5.50;99.90;;;;;;5063944;28;20112;-86
2023/01/09 07:47:33;;;;;;;19.85;12.68;;;5.50;99.90;;;;;;5050011;28;20036;-85
2023/01/09 07:49:59;;;;;;;19.75;11.27;;;5.50;99.90;;;;;;5066920;28;20496;-86
2023/01/09 07:52:24;;;;;;;21.23;11.25;;;5.50;99.90;;;;;;5050586;28;20552;-86
2023/01/09 07:54:50;;;;;;;20.90;11.65;;;5.40;99.90;;;;;;5065205;28;20051;-85
2023/01/09 07:57:15;;;;;;;18.08;11.13;;;5.40;99.90;;;;;;5066069;28;20044;-85
2023/01/09 07:59:41;;;;;;;20.70;11.13;;;5.40;99.90;;;;;;5066188;28;20101;-86
2023/01/09 08:02:08;;;;;;;22.52;10.75;;;5.30;99.90;;;;;;5066126;28;20446;-85
2023/01/09 08:04:34;;;;;;;21.02;10.85;;;5.20;99.90;;;;;;5049143;28;20408;-85
2023/01/09 08:07:01;;;;;;;20.60;10.98;;;5.20;99.90;;;;;;5050185;28;20028;-85
2023/01/09 08:09:27;;;;;;;19.52;10.70;;;5.20;99.90;;;;;;5044099;28;20047;-85
2023/01/09 08:11:53;;;;;;;23.23;10.20;;;5.20;99.90;;;;;;5047405;28;20037;-85
2023/01/09 08:14:18;;;;;;;19.58;10.30;;;5.20;99.90;;;;;;5063794;28;20072;-85
2023/01/09 08:16:44;;;;;;;20.77;10.45;;;5.30;99.90;;;;;;5046870;28;20044;-86
2023/01/09 08:19:10;;;;;;;15.65;9.73;;;5.30;99.90;;;;;;5062407;28;20045;-85
2023/01/09 08:21:37;;;;;;;17.30;9.68;;;5.30;99.90;;;;;;5047084;28;20029;-85
2023/01/09 08:24:03;;;;;;;14.40;8.55;;;5.30;99.90;;;;;;5065109;28;20044;-85
2023/01/09 08:26:28;;;;;;;17.48;9.48;;;5.40;99.90;;;;;;5049486;28;20041;-85
2023/01/09 08:28:54;;;;;;;19.13;9.35;;;5.40;99.90;;;;;;5079674;28;20037;-85
2023/01/09 08:31:19;;;;;;;16.45;9.07;;;5.40;99.90;;;;;;5047533;28;20129;-86
2023/01/09 08:33:45;;;;;;;16.60;8.52;;;5.50;99.90;;;;;;5047788;28;20360;-85
2023/01/09 08:36:11;;;;;;;16.00;8.25;;;5.50;99.90;;;;;;5065077;28;20067;-86
2023/01/09 08:38:36;;;;;;;16.48;8.35;;;5.60;99.90;;;;;;5038224;28;20082;-85
2023/01/09 08:47:04;;;;;;;15.88;8.85;;;5.60;99.90;;;;;;5047086;28;20071;-85
2023/01/09 08:49:19;;;;;;;19.33;7.78;;;5.70;99.90;;;;;;5064401;28;20044;-85
2023/01/09 08:51:45;;;;;;;21.95;8.80;;;5.80;99.90;;;;;;5044621;28;20093;-86
2023/01/09 08:54:11;;;;;;;19.05;8.65;;;5.80;99.90;;;;;;5045524;28;20048;-86
2023/01/09 08:56:38;;;;;;;15.88;8.05;;;5.90;99.90;;;;;;5063247;28;20149;-85
2023/01/09 08:59:04;;;;;;;17.17;7.45;;;6.00;99.90;;;;;;5059973;28;20411;-86
2023/01/09 09:01:31;;;;;;;13.88;7.28;;;6.00;99.90;;;;;;5062420;28;20051;-85
2023/01/09 09:03:56;;;;;;;14.02;7.38;;;6.00;99.90;;;;;;5047974;28;20033;-86
2023/01/09 09:06:22;;;;;;;12.90;7.70;;;6.10;99.90;;;;;;5047420;28;20075;-85
2023/01/09 09:08:48;;;;;;;15.20;7.28;;;6.10;99.90;;;;;;5060941;28;20041;-85
2023/01/09 09:11:13;;;;;;;15.63;7.18;;;6.10;99.90;;;;;;5063850;28;20047;-85
2023/01/09 09:13:39;;;;;;;18.23;7.50;;;6.20;99.90;;;;;;5049819;28;20045;-86
2023/01/09 09:16:05;;;;;;;11.13;6.60;;;6.10;99.90;;;;;;5047215;28;20679;-86
2023/01/09 09:18:30;;;;;;;13.13;6.22;;;6.20;99.90;;;;;;5043555;28;20522;-85
2023/01/09 09:20:56;;;;;;;13.63;6.57;;;6.20;99.90;;;;;;5046185;28;20448;-86
2023/01/09 09:23:22;;;;;;;13.50;6.78;;;6.20;99.90;;;;;;5063616;28;20211;-86
2023/01/09 09:25:48;;;;;;;14.77;7.07;;;6.20;99.90;;;;;;5046822;28;20040;-85
2023/01/09 09:28:13;;;;;;;13.48;6.88;;;6.20;99.90;;;;;;5041573;28;20491;-85
2023/01/09 09:30:39;;;;;;;14.13;6.95;;;6.20;99.90;;;;;;5062680;28;20078;-86
2023/01/09 09:33:05;;;;;;;15.05;7.28;;;6.30;99.90;;;;;;5047898;28;20502;-85
2023/01/09 09:35:32;;;;;;;15.93;6.57;;;6.30;99.90;;;;;;5064899;28;20045;-85
2023/01/09 09:38:00;;;;;;;13.02;6.60;;;6.20;99.90;;;;;;5063569;28;20052;-85
2023/01/09 09:40:38;;;;;;;14.73;6.28;;;6.30;99.90;;;;;;5064194;28;20045;-85
2023/01/09 09:46:09;;;;;;;12.27;6.40;;;6.40;99.90;;;;;;5063807;28;20408;-86
2023/01/09 09:48:56;;;;;;;14.50;6.10;;;6.50;99.90;;;;;;5048443;28;20373;-86
2023/01/09 09:51:31;;;;;;;16.30;5.68;;;6.50;99.90;;;;;;5045574;28;20079;-85
2023/01/09 09:53:58;;;;;;;;;;;6.50;99.90;;;;;;5065133;28;20354;-85
2023/01/09 09:56:26;;;;;;;14.02;5.53;;;6.60;99.90;;;;;;5064964;28;19966;-85
2023/01/09 09:59:00;;;;;;;11.65;5.30;;;6.60;99.90;;;;;;5048201;28;20040;-85
2023/01/09 10:02:04;;;;;;;13.32;6.10;;;6.60;99.90;;;;;;5048048;28;20090;-85
2023/01/09 10:04:32;;;;;;;11.38;5.25;;;6.60;99.90;;;;;;5008026;28;20049;-86
2023/01/09 10:07:08;;;;;;;11.88;5.82;;;6.70;99.90;;;;;;5008884;28;20524;-83
2023/01/09 10:09:49;;;;;;;11.55;5.20;;;6.70;99.90;;;;;;5018329;28;20196;-83
2023/01/09 10:12:28;;;;;;;12.57;5.40;;;6.70;99.90;;;;;;5023293;28;20036;-85
2023/01/09 10:14:59;;;;;;;10.10;5.03;;;6.80;99.90;;;;;;5007554;28;20460;-85
2023/01/09 10:17:54;;;;;;;11.95;5.20;;;6.80;99.90;;;;;;5008895;28;20079;-85
2023/01/09 10:20:55;;;;;;;15.38;6.05;;;6.80;99.90;;;;;;4995335;28;20124;-85
2023/01/09 10:23:41;;;;;;;13.55;5.30;;;6.90;99.90;;;;;;5023728;28;20041;-86
2023/01/09 10:26:17;;;;;;;11.20;4.90;;;6.90;99.90;;;;;;5010062;28;20044;-86
2023/01/09 10:29:05;;;;;;;11.55;5.07;;;6.90;99.90;;;;;;5024106;28;20218;-85
2023/01/09 10:31:40;;;;;;;9.27;5.00;;;7.00;99.90;;;;;;5024162;28;20168;-85
2023/01/09 10:34:24;;;;;;;10.60;5.05;;;7.00;99.90;;;;;;5024840;28;20139;-85
2023/01/09 10:37:18;;;;;;;9.60;5.03;;;7.00;99.90;;;;;;5021288;28;20084;-85
2023/01/09 10:40:06;;;;;;;10.73;5.15;;;7.10;99.90;;;;;;5013169;28;20053;-85
2023/01/09 10:42:44;;;;;;;12.25;5.22;;;7.10;99.90;;;;;;5044251;28;20044;-85
2023/01/09 10:45:21;;;;;;;10.70;5.20;;;7.10;99.90;;;;;;5054718;28;20044;-85
2023/01/09 10:47:47;;;;;;;9.55;4.68;;;7.10;99.90;;;;;;5043369;28;20427;-85
2023/01/09 10:50:22;;;;;;;9.63;4.70;;;7.20;99.90;;;;;;5046780;28;20041;-85
2023/01/09 10:52:51;;;;;;;13.48;5.20;;;7.20;99.90;;;;;;5060236;28;20044;-85
2023/01/09 10:55:24;;;;;;;13.00;5.25;;;7.20;99.90;;;;;;5060743;28;20168;-85
2023/01/09 10:57:56;;;;;;;7.93;4.95;;;7.20;99.90;;;;;;5045995;28;20098;-85
2023/01/09 11:00:23;;;;;;;9.32;4.60;;;7.30;99.90;;;;;;5063933;28;20072;-85
2023/01/09 11:02:50;;;;;;;12.63;5.45;;;7.30;99.90;;;;;;5050378;28;20060;-85
2023/01/09 11:05:23;;;;;;;10.80;5.10;;;7.30;99.90;;;;;;5060973;28;20119;-85
2023/01/09 11:07:54;;;;;;;11.15;5.07;;;7.30;99.90;;;;;;5050225;28;20047;-85
2023/01/09 11:10:20;;;;;;;10.27;5.30;;;7.30;99.90;;;;;;5047971;28;20044;-85
2023/01/09 11:12:46;;;;;;;9.73;5.03;;;7.30;99.90;;;;;;5062147;28;20595;-85
2023/01/09 11:15:15;;;;;;;10.65;5.30;;;7.30;99.90;;;;;;5046776;28;20047;-85
2023/01/09 11:17:44;;;;;;;11.73;5.50;;;7.30;99.90;;;;;;5062773;28;20059;-84
2023/01/09 11:20:16;;;;;;;10.13;5.45;;;7.30;99.90;;;;;;5065062;28;20056;-84
2023/01/09 11:22:49;;;;;;;12.23;5.30;;;7.30;99.90;;;;;;5061816;28;20055;-84
2023/01/09 11:25:18;;;;;;;12.70;5.63;;;7.30;99.90;;;;;;5049085;28;20093;-84
2023/01/09 11:28:02;;;;;;;11.43;5.40;;;7.20;99.90;;;;;;5062451;28;20043;-84
2023/01/09 11:30:51;;;;;;;10.82;5.75;;;7.20;99.90;;;;;;5043883;28;20167;-84
2023/01/09 11:33:21;;;;;;;10.02;5.55;;;7.20;99.90;;;;;;5062024;28;20040;-84
2023/01/09 11:36:03;;;;;;;12.88;6.15;;;7.20;99.90;;;;;;5059772;28;20059;-84
2023/01/09 11:38:52;;;;;;;15.10;6.15;;;7.20;99.90;;;;;;5062657;28;20400;-84
2023/01/09 11:41:28;;;;;;;13.43;6.53;;;7.20;99.90;;;;;;5049197;28;20070;-84
2023/01/09 11:43:57;;;;;;;11.18;5.65;;;7.20;99.90;;;;;;5046889;28;20032;-84
2023/01/09 11:46:42;;;;;;;14.70;5.93;;;7.20;99.90;;;;;;5048602;28;20044;-84
2023/01/09 11:49:11;;;;;;;15.63;6.40;;;7.20;99.90;;;;;;5062718;28;20091;-84
2023/01/09 11:51:37;;;;;;;12.48;5.95;;;7.20;99.90;;;;;;5062493;28;20048;-84
2023/01/09 11:54:11;;;;;;;11.25;6.13;;;7.20;99.90;;;;;;5064015;28;20409;-84
2023/01/09 11:56:38;;;;;;;12.93;6.82;;;7.20;99.90;;;;;;5062898;28;20047;-84
2023/01/09 11:59:13;;;;;;;12.70;6.10;;;7.20;99.90;;;;;;5056328;28;20044;-84
2023/01/09 12:02:15;;;;;;;14.55;6.50;;;7.20;99.90;;;;;;5064946;28;20062;-84
2023/01/09 12:04:58;;;;;;;12.75;6.47;;;7.20;99.90;;;;;;5060692;28;20050;-84
2023/01/09 12:07:29;;;;;;;14.10;7.15;;;7.30;99.90;;;;;;5076997;28;20041;-84
2023/01/09 12:10:20;;;;;;;12.82;6.20;;;7.30;99.90;;;;;;5059442;28;20040;-84
2023/01/09 12:13:23;;;;;;;14.38;6.57;;;7.30;99.90;;;;;;5061705;28;20074;-85
2023/01/09 12:16:07;;;;;;;13.52;6.15;;;7.30;99.90;;;;;;5044333;28;20086;-86
2023/01/09 12:19:11;;;;;;;13.37;7.17;;;7.30;99.90;;;;;;5044181;28;20048;-85
2023/01/09 12:21:50;;;;;;;13.18;7.00;;;7.40;99.90;;;;;;5062209;28;20041;-85
2023/01/09 12:24:34;;;;;;;11.75;6.90;;;7.40;99.90;;;;;;5045158;28;20123;-85
2023/01/09 12:27:10;;;;;;;14.77;7.32;;;7.40;99.90;;;;;;5042862;28;20481;-85
2023/01/09 12:29:49;;;;;;;14.23;7.05;;;7.40;99.90;;;;;;5059882;28;20046;-85
2023/01/09 12:32:42;;;;;;;17.45;7.65;;;7.40;99.90;;;;;;5041766;28;20516;-85
2023/01/09 12:35:52;;;;;;;12.32;7.38;;;7.40;99.90;;;;;;5078023;28;20052;-85
2023/01/09 12:38:34;;;;;;;16.30;7.90;;;7.40;99.90;;;;;;5038263;28;20139;-85
2023/01/09 12:41:11;;;;;;;13.48;7.70;;;7.40;99.90;;;;;;5057216;28;20460;-85
2023/01/09 12:44:03;;;;;;;16.35;8.15;;;7.40;99.90;;;;;;5057385;28;20145;-85
2023/01/09 12:46:42;;;;;;;17.13;8.20;;;7.40;99.90;;;;;;5063559;28;20437;-85
2023/01/09 12:49:19;;;;;;;14.77;7.53;;;7.50;99.90;;;;;;5046989;28;20036;-85
2023/01/09 12:51:48;;;;;;;14.93;8.57;;;7.50;99.90;;;;;;5046942;28;20036;-85
2023/01/09 12:54:19;;;;;;;16.80;8.70;;;7.50;99.90;;;;;;5054287;28;20043;-85
2023/01/09 12:56:52;;;;;;;15.35;7.95;;;7.60;99.90;;;;;;5047581;28;20373;-85
2023/01/09 12:59:54;;;;;;;16.83;9.57;;;7.60;99.90;;;;;;5064268;28;20065;-85
2023/01/09 13:02:31;;;;;;;18.73;8.45;;;7.60;99.90;;;;;;5047327;28;20154;-85
2023/01/09 13:04:59;;;;;;;18.15;9.10;;;7.60;99.90;;;;;;5062135;28;20041;-85
2023/01/09 13:07:52;;;;;;;14.05;8.43;;;7.60;99.90;;;;;;5063089;28;20039;-85
2023/01/09 13:10:32;;;;;;;16.38;9.25;;;7.60;99.90;;;;;;5076004;28;20044;-85
2023/01/09 13:13:11;;;;;;;15.60;9.05;;;7.60;99.90;;;;;;5064679;28;20709;-85
2023/01/09 13:15:56;;;;;;;19.42;10.43;;;7.60;99.90;;;;;;5060416;28;20044;-85
2023/01/09 13:18:45;;;;;;;16.67;9.68;;;7.60;99.90;;;;;;5046829;28;20429;-85